Terminal Aerodrome Forecast
Issued by NWS

Home | Current Version | Previous Version | Graphics & Text | Print | Product List | Glossary Off
Versions: 1 2 3 4 5 6 7 8 9 10 11 12 13 14 15 16 17 18 19 20 21 22 23 24 25 26 27 28

155
FTUS43 KLOT 202320
TAFDPA
TAF
KDPA 202320Z 2100/2124 28012G17KT 3SM -RA BR BKN006 OVC012
     FM210200 32012G17KT 5SM -RA SCT006 OVC012
     FM210400 32014G21KT 5SM -FZRAPL BR SCT007 OVC015
     FM210700 33013G19KT P6SM SCT015 BKN080
     FM211300 34012KT P6SM BKN250
     FM211900 02011KT P6SM FEW025 BKN200=

USA.gov is the U.S. government's official web portal to all federal, state and local government web resources and services.